sensor_id;sensor_type;location;lat;lon;timestamp;pressure;altitude;pressure_sealevel;temperature;humidity
62592;BME280;48659;41.622;2.276;2022-09-17T00:02:10;99466.80;;;20.00;66.34
62592;BME280;48659;41.622;2.276;2022-09-17T00:04:37;99460.67;;;19.36;68.41
62592;BME280;48659;41.622;2.276;2022-09-17T00:07:05;99448.58;;;21.03;64.03
62592;BME280;48659;41.622;2.276;2022-09-17T00:09:32;99452.80;;;20.20;66.19
62592;BME280;48659;41.622;2.276;2022-09-17T00:12:00;99451.16;;;18.41;72.46
62592;BME280;48659;41.622;2.276;2022-09-17T00:14:27;99445.21;;;19.45;69.34
62592;BME280;48659;41.622;2.276;2022-09-17T00:16:55;99446.91;;;18.97;73.17
62592;BME280;48659;41.622;2.276;2022-09-17T00:19:23;99448.23;;;20.20;68.91
62592;BME280;48659;41.622;2.276;2022-09-17T00:21:50;99440.35;;;21.99;62.42
62592;BME280;48659;41.622;2.276;2022-09-17T00:24:19;99434.86;;;21.68;60.90
62592;BME280;48659;41.622;2.276;2022-09-17T00:26:47;99428.51;;;22.53;59.12
62592;BME280;48659;41.622;2.276;2022-09-17T00:29:14;99427.07;;;22.84;58.25
62592;BME280;48659;41.622;2.276;2022-09-17T00:31:41;99430.15;;;23.26;56.66
62592;BME280;48659;41.622;2.276;2022-09-17T00:34:09;99432.49;;;23.52;55.87
62592;BME280;48659;41.622;2.276;2022-09-17T00:36:38;99431.66;;;23.64;56.09
62592;BME280;48659;41.622;2.276;2022-09-17T00:39:07;99436.60;;;23.10;56.81
62592;BME280;48659;41.622;2.276;2022-09-17T00:41:36;99432.37;;;23.27;55.61
62592;BME280;48659;41.622;2.276;2022-09-17T00:44:43;99434.48;;;23.03;56.62
62592;BME280;48659;41.622;2.276;2022-09-17T00:47:15;99428.30;;;23.62;55.23
62592;BME280;48659;41.622;2.276;2022-09-17T00:49:44;99425.53;;;23.51;55.10
62592;BME280;48659;41.622;2.276;2022-09-17T00:55:13;99423.88;;;22.54;56.51
62592;BME280;48659;41.622;2.276;2022-09-17T00:57:42;99419.13;;;23.59;55.09
62592;BME280;48659;41.622;2.276;2022-09-17T01:00:12;99418.71;;;23.01;55.87
62592;BME280;48659;41.622;2.276;2022-09-17T01:02:41;99419.03;;;23.39;54.93
62592;BME280;48659;41.622;2.276;2022-09-17T01:05:09;99421.65;;;20.36;62.67
62592;BME280;48659;41.622;2.276;2022-09-17T01:07:47;99425.05;;;18.77;68.77
62592;BME280;48659;41.622;2.276;2022-09-17T01:10:38;99418.86;;;18.03;74.59
62592;BME280;48659;41.622;2.276;2022-09-17T01:13:19;99413.47;;;18.00;76.41
62592;BME280;48659;41.622;2.276;2022-09-17T01:16:06;99404.51;;;20.38;67.37
62592;BME280;48659;41.622;2.276;2022-09-17T01:18:56;99401.76;;;22.06;61.34
62592;BME280;48659;41.622;2.276;2022-09-17T01:21:38;99401.52;;;22.03;58.31
62592;BME280;48659;41.622;2.276;2022-09-17T01:24:40;99401.32;;;22.51;57.14
62592;BME280;48659;41.622;2.276;2022-09-17T01:28:40;99395.13;;;23.19;56.50
62592;BME280;48659;41.622;2.276;2022-09-17T01:31:49;99393.43;;;22.42;58.15
62592;BME280;48659;41.622;2.276;2022-09-17T01:34:30;99393.61;;;22.10;58.94
62592;BME280;48659;41.622;2.276;2022-09-17T01:37:03;99392.51;;;22.34;59.11
62592;BME280;48659;41.622;2.276;2022-09-17T01:39:42;99392.58;;;22.11;59.30
62592;BME280;48659;41.622;2.276;2022-09-17T01:42:16;99392.15;;;20.61;64.02
62592;BME280;48659;41.622;2.276;2022-09-17T01:44:52;99391.21;;;21.61;61.66
62592;BME280;48659;41.622;2.276;2022-09-17T01:47:33;99397.17;;;20.69;63.79
62592;BME280;48659;41.622;2.276;2022-09-17T01:50:07;99397.79;;;21.19;62.51
62592;BME280;48659;41.622;2.276;2022-09-17T01:52:37;99400.03;;;21.18;61.52
62592;BME280;48659;41.622;2.276;2022-09-17T01:55:08;99395.36;;;21.06;61.60
62592;BME280;48659;41.622;2.276;2022-09-17T01:57:42;99394.71;;;22.07;58.94
62592;BME280;48659;41.622;2.276;2022-09-17T02:00:13;99391.98;;;22.30;58.52
62592;BME280;48659;41.622;2.276;2022-09-17T02:02:44;99395.40;;;22.39;59.53
62592;BME280;48659;41.622;2.276;2022-09-17T02:05:17;99399.02;;;20.65;62.63
62592;BME280;48659;41.622;2.276;2022-09-17T02:07:50;99408.11;;;18.98;68.66
62592;BME280;48659;41.622;2.276;2022-09-17T02:10:20;99409.76;;;19.25;68.61
62592;BME280;48659;41.622;2.276;2022-09-17T02:12:53;99410.64;;;18.69;70.21
62592;BME280;48659;41.622;2.276;2022-09-17T02:15:27;99400.32;;;20.99;63.59
62592;BME280;48659;41.622;2.276;2022-09-17T02:17:58;99397.61;;;21.57;61.71
62592;BME280;48659;41.622;2.276;2022-09-17T02:20:39;99396.44;;;22.25;59.64
62592;BME280;48659;41.622;2.276;2022-09-17T02:23:11;99398.01;;;22.18;59.65
62592;BME280;48659;41.622;2.276;2022-09-17T02:25:46;99393.81;;;22.27;58.66
62592;BME280;48659;41.622;2.276;2022-09-17T02:28:19;99390.84;;;22.65;57.51
62592;BME280;48659;41.622;2.276;2022-09-17T02:31:00;99387.49;;;22.74;57.25
62592;BME280;48659;41.622;2.276;2022-09-17T02:33:28;99387.38;;;21.48;59.60
62592;BME280;48659;41.622;2.276;2022-09-17T02:35:56;99383.57;;;22.38;57.74
62592;BME280;48659;41.622;2.276;2022-09-17T02:38:31;99384.34;;;22.41;57.03
62592;BME280;48659;41.622;2.276;2022-09-17T02:41:05;99394.32;;;20.77;61.03
62592;BME280;48659;41.622;2.276;2022-09-17T02:43:42;99395.20;;;21.27;54.92
62592;BME280;48659;41.622;2.276;2022-09-17T02:46:29;99398.79;;;19.50;59.46
62592;BME280;48659;41.622;2.276;2022-09-17T02:49:43;99404.91;;;17.73;65.09
62592;BME280;48659;41.622;2.276;2022-09-17T02:52:20;99395.87;;;18.23;62.72
62592;BME280;48659;41.622;2.276;2022-09-17T02:54:59;99393.83;;;18.88;60.30
62592;BME280;48659;41.622;2.276;2022-09-17T02:57:33;99399.05;;;17.53;62.18
62592;BME280;48659;41.622;2.276;2022-09-17T03:00:10;99402.75;;;17.59;60.11
62592;BME280;48659;41.622;2.276;2022-09-17T03:02:41;99390.74;;;19.25;55.57
62592;BME280;48659;41.622;2.276;2022-09-17T03:05:10;99396.54;;;17.80;58.08
62592;BME280;48659;41.622;2.276;2022-09-17T03:07:38;99394.94;;;18.12;55.09
62592;BME280;48659;41.622;2.276;2022-09-17T03:10:06;99402.56;;;17.74;55.52
62592;BME280;48659;41.622;2.276;2022-09-17T03:12:34;99397.77;;;17.23;57.03
62592;BME280;48659;41.622;2.276;2022-09-17T03:15:02;99400.16;;;17.78;55.80
62592;BME280;48659;41.622;2.276;2022-09-17T03:17:30;99399.09;;;16.62;58.16
62592;BME280;48659;41.622;2.276;2022-09-17T03:19:57;99399.01;;;16.92;58.24
62592;BME280;48659;41.622;2.276;2022-09-17T03:22:24;99393.44;;;17.95;54.64
62592;BME280;48659;41.622;2.276;2022-09-17T03:24:51;99397.30;;;17.89;55.00
62592;BME280;48659;41.622;2.276;2022-09-17T03:27:18;99393.57;;;17.51;55.67
62592;BME280;48659;41.622;2.276;2022-09-17T03:29:45;99394.18;;;17.28;56.32
62592;BME280;48659;41.622;2.276;2022-09-17T03:32:13;99399.34;;;17.20;56.08
62592;BME280;48659;41.622;2.276;2022-09-17T03:34:40;99401.76;;;17.87;54.32
62592;BME280;48659;41.622;2.276;2022-09-17T03:37:07;99402.62;;;17.38;55.69
62592;BME280;48659;41.622;2.276;2022-09-17T03:39:34;99411.84;;;16.21;57.75
62592;BME280;48659;41.622;2.276;2022-09-17T03:42:01;99413.20;;;16.16;58.34
62592;BME280;48659;41.622;2.276;2022-09-17T03:44:28;99410.79;;;16.94;56.74
62592;BME280;48659;41.622;2.276;2022-09-17T03:46:56;99412.31;;;16.50;56.91
62592;BME280;48659;41.622;2.276;2022-09-17T03:49:23;99417.11;;;16.42;57.75
62592;BME280;48659;41.622;2.276;2022-09-17T03:51:50;99416.11;;;15.94;58.30
62592;BME280;48659;41.622;2.276;2022-09-17T03:54:29;99407.94;;;16.89;56.36
62592;BME280;48659;41.622;2.276;2022-09-17T03:56:56;99412.24;;;17.03;54.63
62592;BME280;48659;41.622;2.276;2022-09-17T03:59:23;99414.26;;;17.18;53.78
62592;BME280;48659;41.622;2.276;2022-09-17T04:01:51;99418.92;;;16.77;55.83
62592;BME280;48659;41.622;2.276;2022-09-17T04:04:19;99418.03;;;16.74;55.66
62592;BME280;48659;41.622;2.276;2022-09-17T04:06:46;99421.34;;;17.92;53.00
62592;BME280;48659;41.622;2.276;2022-09-17T04:09:14;99415.84;;;19.09;49.95
62592;BME280;48659;41.622;2.276;2022-09-17T04:11:41;99424.47;;;17.51;52.90
62592;BME280;48659;41.622;2.276;2022-09-17T04:14:09;99425.66;;;16.78;55.35
62592;BME280;48659;41.622;2.276;2022-09-17T04:16:36;99427.93;;;16.90;55.84
62592;BME280;48659;41.622;2.276;2022-09-17T04:19:03;99436.34;;;16.25;56.82
62592;BME280;48659;41.622;2.276;2022-09-17T04:21:30;99441.47;;;16.33;57.88
62592;BME280;48659;41.622;2.276;2022-09-17T04:23:57;99446.89;;;15.99;58.85
62592;BME280;48659;41.622;2.276;2022-09-17T04:26:24;99444.77;;;16.42;57.00
62592;BME280;48659;41.622;2.276;2022-09-17T04:28:51;99442.63;;;17.25;54.10
62592;BME280;48659;41.622;2.276;2022-09-17T04:31:19;99452.80;;;16.01;57.75
62592;BME280;48659;41.622;2.276;2022-09-17T04:33:46;99453.95;;;17.21;54.77
62592;BME280;48659;41.622;2.276;2022-09-17T04:36:14;99462.68;;;16.15;57.05
62592;BME280;48659;41.622;2.276;2022-09-17T04:38:41;99469.47;;;16.41;56.58
62592;BME280;48659;41.622;2.276;2022-09-17T04:41:09;99467.98;;;17.04;55.07
62592;BME280;48659;41.622;2.276;2022-09-17T04:43:37;99475.07;;;15.93;59.05
62592;BME280;48659;41.622;2.276;2022-09-17T04:46:04;99478.22;;;15.98;59.07
62592;BME280;48659;41.622;2.276;2022-09-17T04:48:31;99477.80;;;15.36;61.93
62592;BME280;48659;41.622;2.276;2022-09-17T04:50:58;99483.00;;;16.68;60.57
62592;BME280;48659;41.622;2.276;2022-09-17T04:53:30;99485.73;;;16.63;60.78
62592;BME280;48659;41.622;2.276;2022-09-17T04:55:58;99483.70;;;17.69;58.04
62592;BME280;48659;41.622;2.276;2022-09-17T04:58:25;99481.61;;;17.13;58.42
62592;BME280;48659;41.622;2.276;2022-09-17T05:00:53;99479.16;;;17.87;58.81
62592;BME280;48659;41.622;2.276;2022-09-17T05:03:20;99482.29;;;17.35;60.64
62592;BME280;48659;41.622;2.276;2022-09-17T05:05:47;99484.45;;;18.46;60.38
62592;BME280;48659;41.622;2.276;2022-09-17T05:08:14;99482.30;;;19.54;57.18
62592;BME280;48659;41.622;2.276;2022-09-17T05:10:42;99486.92;;;20.36;54.80
62592;BME280;48659;41.622;2.276;2022-09-17T05:13:09;99489.52;;;20.74;54.64
62592;BME280;48659;41.622;2.276;2022-09-17T05:15:35;99486.32;;;19.62;55.69
62592;BME280;48659;41.622;2.276;2022-09-17T05:18:03;99487.41;;;18.61;58.69
62592;BME280;48659;41.622;2.276;2022-09-17T05:20:30;99486.04;;;19.70;57.19
62592;BME280;48659;41.622;2.276;2022-09-17T05:22:57;99486.51;;;19.00;55.32
62592;BME280;48659;41.622;2.276;2022-09-17T05:25:25;99486.57;;;18.61;57.14
62592;BME280;48659;41.622;2.276;2022-09-17T05:27:53;99489.02;;;18.22;59.01
62592;BME280;48659;41.622;2.276;2022-09-17T05:30:23;99492.83;;;17.95;58.84
62592;BME280;48659;41.622;2.276;2022-09-17T05:32:58;99496.22;;;17.44;59.14
62592;BME280;48659;41.622;2.276;2022-09-17T05:35:26;99501.48;;;18.73;55.76
62592;BME280;48659;41.622;2.276;2022-09-17T05:37:56;99506.29;;;17.69;58.74
62592;BME280;48659;41.622;2.276;2022-09-17T05:40:24;99512.87;;;17.30;58.25
62592;BME280;48659;41.622;2.276;2022-09-17T05:42:51;99524.77;;;15.84;62.12
62592;BME280;48659;41.622;2.276;2022-09-17T05:45:19;99532.94;;;16.30;63.04
62592;BME280;48659;41.622;2.276;2022-09-17T05:47:46;99528.74;;;16.31;63.43
62592;BME280;48659;41.622;2.276;2022-09-17T05:50:12;99529.45;;;15.94;63.60
62592;BME280;48659;41.622;2.276;2022-09-17T05:52:39;99535.96;;;16.74;61.02
62592;BME280;48659;41.622;2.276;2022-09-17T05:55:07;99538.22;;;17.66;58.35
62592;BME280;48659;41.622;2.276;2022-09-17T05:57:35;99538.13;;;18.38;55.59
62592;BME280;48659;41.622;2.276;2022-09-17T06:00:02;99545.33;;;17.64;56.66
62592;BME280;48659;41.622;2.276;2022-09-17T06:02:30;99542.40;;;18.15;55.65
62592;BME280;48659;41.622;2.276;2022-09-17T06:04:58;99545.26;;;17.37;57.46
62592;BME280;48659;41.622;2.276;2022-09-17T06:07:25;99548.31;;;17.51;57.73
62592;BME280;48659;41.622;2.276;2022-09-17T06:09:52;99563.63;;;16.91;59.57
62592;BME280;48659;41.622;2.276;2022-09-17T06:12:40;99560.34;;;17.92;56.62
62592;BME280;48659;41.622;2.276;2022-09-17T06:15:08;99555.73;;;19.44;53.27
62592;BME280;48659;41.622;2.276;2022-09-17T06:17:35;99566.47;;;16.99;58.01
62592;BME280;48659;41.622;2.276;2022-09-17T06:20:06;99564.23;;;18.52;54.81
62592;BME280;48659;41.622;2.276;2022-09-17T06:22:33;99566.95;;;18.42;55.54
62592;BME280;48659;41.622;2.276;2022-09-17T06:25:00;99570.46;;;17.24;58.94
62592;BME280;48659;41.622;2.276;2022-09-17T06:27:31;99567.18;;;17.48;57.56
62592;BME280;48659;41.622;2.276;2022-09-17T06:29:58;99568.93;;;18.22;55.56
62592;BME280;48659;41.622;2.276;2022-09-17T06:32:27;99577.60;;;17.14;58.19
62592;BME280;48659;41.622;2.276;2022-09-17T06:34:55;99574.88;;;17.17;58.35
62592;BME280;48659;41.622;2.276;2022-09-17T06:37:27;99576.43;;;15.46;61.92
62592;BME280;48659;41.622;2.276;2022-09-17T06:39:54;99576.45;;;15.54;62.72
62592;BME280;48659;41.622;2.276;2022-09-17T06:42:22;99580.95;;;15.96;62.59
62592;BME280;48659;41.622;2.276;2022-09-17T06:44:51;99583.90;;;16.48;59.54
62592;BME280;48659;41.622;2.276;2022-09-17T06:47:19;99584.59;;;17.06;58.43
62592;BME280;48659;41.622;2.276;2022-09-17T06:49:51;99585.00;;;16.91;58.40
62592;BME280;48659;41.622;2.276;2022-09-17T06:52:19;99586.73;;;16.88;57.85
62592;BME280;48659;41.622;2.276;2022-09-17T06:54:47;99585.73;;;17.61;56.00
62592;BME280;48659;41.622;2.276;2022-09-17T06:57:14;99588.98;;;17.15;56.37
62592;BME280;48659;41.622;2.276;2022-09-17T06:59:41;99590.07;;;17.30;57.01
62592;BME280;48659;41.622;2.276;2022-09-17T07:02:08;99594.20;;;16.67;57.69
62592;BME280;48659;41.622;2.276;2022-09-17T07:04:35;99603.04;;;16.89;57.41
62592;BME280;48659;41.622;2.276;2022-09-17T07:07:03;99607.16;;;17.63;54.92
62592;BME280;48659;41.622;2.276;2022-09-17T07:09:31;99611.79;;;18.23;52.75
62592;BME280;48659;41.622;2.276;2022-09-17T07:11:58;99618.56;;;17.96;51.44
62592;BME280;48659;41.622;2.276;2022-09-17T07:14:33;99619.29;;;18.77;49.52
62592;BME280;48659;41.622;2.276;2022-09-17T07:17:05;99617.63;;;19.15;48.72
62592;BME280;48659;41.622;2.276;2022-09-17T07:19:37;99614.63;;;18.55;49.92
62592;BME280;48659;41.622;2.276;2022-09-17T07:22:05;99616.05;;;18.22;50.66
62592;BME280;48659;41.622;2.276;2022-09-17T07:24:32;99620.08;;;18.20;50.13
62592;BME280;48659;41.622;2.276;2022-09-17T07:27:05;99623.36;;;19.10;48.71
62592;BME280;48659;41.622;2.276;2022-09-17T07:29:37;99622.63;;;19.27;47.26
62592;BME280;48659;41.622;2.276;2022-09-17T07:32:04;99627.40;;;17.58;49.18
62592;BME280;48659;41.622;2.276;2022-09-17T07:34:33;99620.85;;;18.91;46.50
62592;BME280;48659;41.622;2.276;2022-09-17T07:37:00;99621.24;;;19.01;47.45
62592;BME280;48659;41.622;2.276;2022-09-17T07:39:27;99625.88;;;18.86;46.97
62592;BME280;48659;41.622;2.276;2022-09-17T07:41:54;99636.85;;;17.39;50.38
62592;BME280;48659;41.622;2.276;2022-09-17T07:44:21;99639.08;;;17.74;49.27
62592;BME280;48659;41.622;2.276;2022-09-17T07:46:49;99628.10;;;18.21;48.95
62592;BME280;48659;41.622;2.276;2022-09-17T07:49:17;99636.02;;;17.35;50.93
62592;BME280;48659;41.622;2.276;2022-09-17T07:51:44;99630.66;;;16.79;51.54
62592;BME280;48659;41.622;2.276;2022-09-17T07:54:12;99636.01;;;17.35;50.61
62592;BME280;48659;41.622;2.276;2022-09-17T07:56:39;99636.32;;;17.68;49.94
62592;BME280;48659;41.622;2.276;2022-09-17T07:59:08;99635.50;;;17.38;51.18
62592;BME280;48659;41.622;2.276;2022-09-17T08:01:36;99634.90;;;16.09;54.89
62592;BME280;48659;41.622;2.276;2022-09-17T08:04:04;99637.72;;;17.35;51.14
62592;BME280;48659;41.622;2.276;2022-09-17T08:06:36;99640.54;;;17.90;49.63
62592;BME280;48659;41.622;2.276;2022-09-17T08:09:04;99635.24;;;18.38;48.51
62592;BME280;48659;41.622;2.276;2022-09-17T08:11:32;99639.27;;;17.81;49.50
62592;BME280;48659;41.622;2.276;2022-09-17T08:13:59;99650.34;;;16.72;51.75
62592;BME280;48659;41.622;2.276;2022-09-17T08:16:27;99657.46;;;17.39;49.80
62592;BME280;48659;41.622;2.276;2022-09-17T08:18:57;99656.63;;;16.69;51.01
62592;BME280;48659;41.622;2.276;2022-09-17T08:21:24;99650.53;;;17.77;48.75
62592;BME280;48659;41.622;2.276;2022-09-17T08:23:51;99652.33;;;16.92;50.49
62592;BME280;48659;41.622;2.276;2022-09-17T08:26:20;99652.75;;;17.80;48.72
62592;BME280;48659;41.622;2.276;2022-09-17T08:28:50;99656.18;;;17.89;49.16
62592;BME280;48659;41.622;2.276;2022-09-17T08:31:18;99664.01;;;17.90;48.59
62592;BME280;48659;41.622;2.276;2022-09-17T08:33:47;99659.55;;;19.18;45.52
62592;BME280;48659;41.622;2.276;2022-09-17T08:36:15;99663.27;;;18.07;48.20
62592;BME280;48659;41.622;2.276;2022-09-17T08:38:44;99662.39;;;18.98;46.70
62592;BME280;48659;41.622;2.276;2022-09-17T08:41:21;99664.12;;;18.26;48.40
62592;BME280;48659;41.622;2.276;2022-09-17T08:43:57;99668.18;;;17.88;49.19
62592;BME280;48659;41.622;2.276;2022-09-17T08:46:31;99667.80;;;17.98;48.35
62592;BME280;48659;41.622;2.276;2022-09-17T08:49:06;99672.31;;;17.60;49.61
62592;BME280;48659;41.622;2.276;2022-09-17T08:51:41;99672.09;;;17.37;50.55
62592;BME280;48659;41.622;2.276;2022-09-17T08:54:18;99672.59;;;18.60;48.58
62592;BME280;48659;41.622;2.276;2022-09-17T08:57:02;99681.02;;;18.04;50.09
62592;BME280;48659;41.622;2.276;2022-09-17T08:59:36;99679.53;;;18.71;48.17
62592;BME280;48659;41.622;2.276;2022-09-17T09:02:16;99683.94;;;19.34;46.86
62592;BME280;48659;41.622;2.276;2022-09-17T09:05:09;99685.41;;;18.90;48.00
62592;BME280;48659;41.622;2.276;2022-09-17T09:07:41;99682.63;;;19.72;46.59
62592;BME280;48659;41.622;2.276;2022-09-17T09:10:17;99688.42;;;19.27;46.84
62592;BME280;48659;41.622;2.276;2022-09-17T09:12:47;99688.29;;;19.22;46.99
62592;BME280;48659;41.622;2.276;2022-09-17T09:15:34;99685.00;;;18.86;47.73
62592;BME280;48659;41.622;2.276;2022-09-17T09:18:15;99685.48;;;19.67;47.10
62592;BME280;48659;41.622;2.276;2022-09-17T09:20:49;99680.56;;;20.06;46.11
62592;BME280;48659;41.622;2.276;2022-09-17T09:23:19;99685.55;;;19.07;47.38
62592;BME280;48659;41.622;2.276;2022-09-17T09:25:54;99685.73;;;19.45;46.28
62592;BME280;48659;41.622;2.276;2022-09-17T09:28:39;99685.63;;;19.80;45.72
62592;BME280;48659;41.622;2.276;2022-09-17T09:31:18;99684.20;;;19.93;45.33
62592;BME280;48659;41.622;2.276;2022-09-17T09:33:50;99688.03;;;20.25;44.73
62592;BME280;48659;41.622;2.276;2022-09-17T09:36:18;99682.44;;;20.85;43.85
62592;BME280;48659;41.622;2.276;2022-09-17T09:38:50;99678.08;;;21.06;42.80
62592;BME280;48659;41.622;2.276;2022-09-17T09:41:27;99681.15;;;19.62;45.81
62592;BME280;48659;41.622;2.276;2022-09-17T09:44:01;99681.37;;;20.06;45.45
62592;BME280;48659;41.622;2.276;2022-09-17T09:46:43;99683.71;;;20.07;44.76
62592;BME280;48659;41.622;2.276;2022-09-17T09:49:24;99687.86;;;21.08;43.51
62592;BME280;48659;41.622;2.276;2022-09-17T09:52:03;99690.60;;;20.33;44.43
62592;BME280;48659;41.622;2.276;2022-09-17T09:54:45;99687.06;;;20.51;43.66
62592;BME280;48659;41.622;2.276;2022-09-17T09:57:19;99685.27;;;20.82;43.60
62592;BME280;48659;41.622;2.276;2022-09-17T09:59:48;99687.56;;;19.42;46.76
62592;BME280;48659;41.622;2.276;2022-09-17T10:02:16;99690.67;;;19.82;46.96
62592;BME280;48659;41.622;2.276;2022-09-17T10:04:43;99692.14;;;19.61;46.66
62592;BME280;48659;41.622;2.276;2022-09-17T10:07:10;99686.36;;;19.84;46.30
62592;BME280;48659;41.622;2.276;2022-09-17T10:09:44;99683.18;;;20.32;45.36
62592;BME280;48659;41.622;2.276;2022-09-17T10:12:16;99679.83;;;20.70;44.66
62592;BME280;48659;41.622;2.276;2022-09-17T10:14:45;99682.76;;;20.14;45.33
62592;BME280;48659;41.622;2.276;2022-09-17T10:17:18;99681.59;;;20.09;44.77
62592;BME280;48659;41.622;2.276;2022-09-17T10:22:34;99679.44;;;20.40;44.70
62592;BME280;48659;41.622;2.276;2022-09-17T10:25:06;99682.53;;;20.18;45.07
62592;BME280;48659;41.622;2.276;2022-09-17T10:27:45;99686.50;;;20.56;44.81
62592;BME280;48659;41.622;2.276;2022-09-17T10:30:15;99678.61;;;20.30;44.50
62592;BME280;48659;41.622;2.276;2022-09-17T10:32:43;99679.31;;;21.69;42.61
62592;BME280;48659;41.622;2.276;2022-09-17T10:35:36;99667.38;;;21.26;42.47
62592;BME280;48659;41.622;2.276;2022-09-17T10:38:04;99669.91;;;20.62;43.90
62592;BME280;48659;41.622;2.276;2022-09-17T10:40:31;99666.84;;;21.10;43.34
62592;BME280;48659;41.622;2.276;2022-09-17T10:43:31;99663.46;;;21.76;41.94
62592;BME280;48659;41.622;2.276;2022-09-17T10:45:59;99659.18;;;21.94;41.75
62592;BME280;48659;41.622;2.276;2022-09-17T10:48:30;99659.10;;;22.20;40.98
62592;BME280;48659;41.622;2.276;2022-09-17T10:50:59;99648.81;;;23.42;38.99
62592;BME280;48659;41.622;2.276;2022-09-17T10:53:27;99649.71;;;23.47;39.32
62592;BME280;48659;41.622;2.276;2022-09-17T10:56:01;99643.26;;;24.13;38.60
62592;BME280;48659;41.622;2.276;2022-09-17T10:58:45;99646.87;;;22.96;39.30
62592;BME280;48659;41.622;2.276;2022-09-17T11:01:27;99645.44;;;22.53;40.10
62592;BME280;48659;41.622;2.276;2022-09-17T11:04:12;99651.91;;;21.75;42.39
62592;BME280;48659;41.622;2.276;2022-09-17T11:07:04;99652.28;;;22.15;41.45
62592;BME280;48659;41.622;2.276;2022-09-17T11:09:42;99647.74;;;22.27;41.69
62592;BME280;48659;41.622;2.276;2022-09-17T11:12:27;99650.71;;;22.18;41.66
62592;BME280;48659;41.622;2.276;2022-09-17T11:15:05;99645.73;;;22.49;41.16
62592;BME280;48659;41.622;2.276;2022-09-17T11:17:54;99650.73;;;20.86;44.53
62592;BME280;48659;41.622;2.276;2022-09-17T11:20:35;99651.93;;;22.12;41.61
62592;BME280;48659;41.622;2.276;2022-09-17T11:23:22;99652.29;;;21.77;42.86
62592;BME280;48659;41.622;2.276;2022-09-17T11:25:55;99648.96;;;22.20;42.32
62592;BME280;48659;41.622;2.276;2022-09-17T11:28:38;99644.38;;;21.95;42.27
62592;BME280;48659;41.622;2.276;2022-09-17T11:31:19;99645.91;;;21.23;43.19
62592;BME280;48659;41.622;2.276;2022-09-17T11:34:09;99638.78;;;24.21;38.88
62592;BME280;48659;41.622;2.276;2022-09-17T11:36:47;99637.10;;;23.52;38.53
62592;BME280;48659;41.622;2.276;2022-09-17T11:39:21;99631.39;;;25.09;35.80
62592;BME280;48659;41.622;2.276;2022-09-17T11:41:51;99630.04;;;24.59;36.82
62592;BME280;48659;41.622;2.276;2022-09-17T11:44:24;99631.30;;;25.67;35.42
62592;BME280;48659;41.622;2.276;2022-09-17T11:46:57;99627.28;;;24.40;36.78
62592;BME280;48659;41.622;2.276;2022-09-17T11:49:35;99627.03;;;25.53;35.29
62592;BME280;48659;41.622;2.276;2022-09-17T11:52:10;99623.37;;;24.25;36.49
62592;BME280;48659;41.622;2.276;2022-09-17T11:54:46;99622.89;;;24.79;35.84
62592;BME280;48659;41.622;2.276;2022-09-17T11:57:17;99622.52;;;25.42;34.92
62592;BME280;48659;41.622;2.276;2022-09-17T11:59:51;99621.06;;;25.68;34.91
62592;BME280;48659;41.622;2.276;2022-09-17T12:02:39;99612.94;;;24.76;35.60
62592;BME280;48659;41.622;2.276;2022-09-17T12:05:13;99612.23;;;26.57;33.99
62592;BME280;48659;41.622;2.276;2022-09-17T12:07:50;99612.40;;;26.40;34.11
62592;BME280;48659;41.622;2.276;2022-09-17T12:10:44;99604.26;;;26.35;33.71
62592;BME280;48659;41.622;2.276;2022-09-17T12:13:22;99602.03;;;26.01;33.91
62592;BME280;48659;41.622;2.276;2022-09-17T12:16:02;99596.71;;;25.09;35.88
62592;BME280;48659;41.622;2.276;2022-09-17T12:18:44;99590.02;;;25.79;34.05
62592;BME280;48659;41.622;2.276;2022-09-17T12:21:17;99591.64;;;25.19;35.86
62592;BME280;48659;41.622;2.276;2022-09-17T12:23:49;99590.19;;;25.37;35.42
62592;BME280;48659;41.622;2.276;2022-09-17T12:26:27;99581.21;;;26.46;34.15
62592;BME280;48659;41.622;2.276;2022-09-17T12:29:02;99577.83;;;26.74;33.59
62592;BME280;48659;41.622;2.276;2022-09-17T12:31:36;99573.91;;;25.95;33.85
62592;BME280;48659;41.622;2.276;2022-09-17T12:34:22;99574.11;;;26.65;33.26
62592;BME280;48659;41.622;2.276;2022-09-17T12:37:03;99564.69;;;27.14;31.97
62592;BME280;48659;41.622;2.276;2022-09-17T12:39:49;99556.95;;;26.63;33.08
62592;BME280;48659;41.622;2.276;2022-09-17T12:42:28;99561.68;;;25.48;34.99
62592;BME280;48659;41.622;2.276;2022-09-17T12:45:13;99556.92;;;25.38;35.13
62592;BME280;48659;41.622;2.276;2022-09-17T12:50:48;99552.72;;;27.19;33.38
62592;BME280;48659;41.622;2.276;2022-09-17T12:53:25;99558.75;;;26.73;33.20
62592;BME280;48659;41.622;2.276;2022-09-17T12:56:07;99549.22;;;27.28;32.08
62592;BME280;48659;41.622;2.276;2022-09-17T12:58:49;99551.16;;;25.93;34.23
62592;BME280;48659;41.622;2.276;2022-09-17T13:01:26;99551.45;;;24.64;36.39
62592;BME280;48659;41.622;2.276;2022-09-17T13:04:09;99543.60;;;26.38;33.97
62592;BME280;48659;41.622;2.276;2022-09-17T13:07:17;99543.43;;;26.88;33.55
62592;BME280;48659;41.622;2.276;2022-09-17T13:10:01;99541.61;;;26.01;34.57
62592;BME280;48659;41.622;2.276;2022-09-17T13:12:32;99547.27;;;26.11;35.90
62592;BME280;48659;41.622;2.276;2022-09-17T13:15:29;99548.59;;;26.63;34.60
62592;BME280;48659;41.622;2.276;2022-09-17T13:18:07;99554.95;;;26.20;35.37
62592;BME280;48659;41.622;2.276;2022-09-17T13:20:42;99552.73;;;26.43;34.95
62592;BME280;48659;41.622;2.276;2022-09-17T13:23:14;99557.22;;;27.12;34.25
62592;BME280;48659;41.622;2.276;2022-09-17T13:25:49;99563.91;;;25.53;35.83
62592;BME280;48659;41.622;2.276;2022-09-17T13:28:18;99562.10;;;26.05;35.29
62592;BME280;48659;41.622;2.276;2022-09-17T13:31:01;99559.74;;;26.63;34.76
62592;BME280;48659;41.622;2.276;2022-09-17T13:34:01;99564.57;;;26.58;34.68
62592;BME280;48659;41.622;2.276;2022-09-17T13:36:38;99565.58;;;26.69;35.07
62592;BME280;48659;41.622;2.276;2022-09-17T13:39:08;99566.90;;;24.68;38.09
62592;BME280;48659;41.622;2.276;2022-09-17T13:41:38;99569.71;;;24.88;38.23